sensor_id;sensor_type;location;lat;lon;timestamp;P1;P2;P0
46681;PMS5003;34101;53.430;-2.224;2024-03-07T00:00:46;69;65;
46681;PMS5003;34101;53.430;-2.224;2024-03-07T00:03:14;64;56;
46681;PMS5003;34101;53.430;-2.224;2024-03-07T00:05:42;64;59;
46681;PMS5003;34101;53.430;-2.224;2024-03-07T00:08:10;60;58;
46681;PMS5003;34101;53.430;-2.224;2024-03-07T00:10:38;52;50;
46681;PMS5003;34101;53.430;-2.224;2024-03-07T00:13:06;50;47;
46681;PMS5003;34101;53.430;-2.224;2024-03-07T00:15:34;63;53;
46681;PMS5003;34101;53.430;-2.224;2024-03-07T00:18:02;65;61;
46681;PMS5003;34101;53.430;-2.224;2024-03-07T00:20:30;66;57;
46681;PMS5003;34101;53.430;-2.224;2024-03-07T00:22:57;68;67;
46681;PMS5003;34101;53.430;-2.224;2024-03-07T00:25:25;61;55;
46681;PMS5003;34101;53.430;-2.224;2024-03-07T00:27:53;59;59;
46681;PMS5003;34101;53.430;-2.224;2024-03-07T00:30:21;57;55;
46681;PMS5003;34101;53.430;-2.224;2024-03-07T00:32:48;56;55;
46681;PMS5003;34101;53.430;-2.224;2024-03-07T00:35:16;56;55;
46681;PMS5003;34101;53.430;-2.224;2024-03-07T00:37:43;62;59;
46681;PMS5003;34101;53.430;-2.224;2024-03-07T00:40:11;55;53;
46681;PMS5003;34101;53.430;-2.224;2024-03-07T00:42:39;54;53;
46681;PMS5003;34101;53.430;-2.224;2024-03-07T00:45:07;63;58;
46681;PMS5003;34101;53.430;-2.224;2024-03-07T00:47:34;60;57;
46681;PMS5003;34101;53.430;-2.224;2024-03-07T00:50:01;53;53;
46681;PMS5003;34101;53.430;-2.224;2024-03-07T00:52:30;58;58;
46681;PMS5003;34101;53.430;-2.224;2024-03-07T00:54:58;64;59;
46681;PMS5003;34101;53.430;-2.224;2024-03-07T00:57:26;54;51;
46681;PMS5003;34101;53.430;-2.224;2024-03-07T00:59:54;56;51;
46681;PMS5003;34101;53.430;-2.224;2024-03-07T01:02:22;59;55;
46681;PMS5003;34101;53.430;-2.224;2024-03-07T01:04:49;48;46;
46681;PMS5003;34101;53.430;-2.224;2024-03-07T01:07:17;55;52;
46681;PMS5003;34101;53.430;-2.224;2024-03-07T01:09:45;62;56;
46681;PMS5003;34101;53.430;-2.224;2024-03-07T01:12:12;59;56;
46681;PMS5003;34101;53.430;-2.224;2024-03-07T01:14:39;58;48;
46681;PMS5003;34101;53.430;-2.224;2024-03-07T01:17:07;52;51;
46681;PMS5003;34101;53.430;-2.224;2024-03-07T01:19:35;54;50;
46681;PMS5003;34101;53.430;-2.224;2024-03-07T01:22:03;67;62;
46681;PMS5003;34101;53.430;-2.224;2024-03-07T01:24:31;60;53;
46681;PMS5003;34101;53.430;-2.224;2024-03-07T01:26:58;62;57;
46681;PMS5003;34101;53.430;-2.224;2024-03-07T01:29:26;62;59;
46681;PMS5003;34101;53.430;-2.224;2024-03-07T01:31:53;62;54;
46681;PMS5003;34101;53.430;-2.224;2024-03-07T01:34:21;59;54;
46681;PMS5003;34101;53.430;-2.224;2024-03-07T01:36:48;59;55;
46681;PMS5003;34101;53.430;-2.224;2024-03-07T01:39:16;55;51;
46681;PMS5003;34101;53.430;-2.224;2024-03-07T01:41:44;64;64;
46681;PMS5003;34101;53.430;-2.224;2024-03-07T01:44:12;55;53;
46681;PMS5003;34101;53.430;-2.224;2024-03-07T01:46:40;51;47;
46681;PMS5003;34101;53.430;-2.224;2024-03-07T01:49:08;56;52;
46681;PMS5003;34101;53.430;-2.224;2024-03-07T01:51:36;52;49;
46681;PMS5003;34101;53.430;-2.224;2024-03-07T01:54:06;59;53;
46681;PMS5003;34101;53.430;-2.224;2024-03-07T01:56:36;52;49;
46681;PMS5003;34101;53.430;-2.224;2024-03-07T01:59:06;67;63;
46681;PMS5003;34101;53.430;-2.224;2024-03-07T02:01:35;56;54;
46681;PMS5003;34101;53.430;-2.224;2024-03-07T02:04:02;60;57;
46681;PMS5003;34101;53.430;-2.224;2024-03-07T02:06:30;52;50;
46681;PMS5003;34101;53.430;-2.224;2024-03-07T02:08:58;58;55;
46681;PMS5003;34101;53.430;-2.224;2024-03-07T02:11:26;56;51;
46681;PMS5003;34101;53.430;-2.224;2024-03-07T02:13:54;66;61;
46681;PMS5003;34101;53.430;-2.224;2024-03-07T02:16:22;61;55;
46681;PMS5003;34101;53.430;-2.224;2024-03-07T02:18:50;65;64;
46681;PMS5003;34101;53.430;-2.224;2024-03-07T02:21:17;58;52;
46681;PMS5003;34101;53.430;-2.224;2024-03-07T02:23:44;65;60;
46681;PMS5003;34101;53.430;-2.224;2024-03-07T02:26:11;65;56;
46681;PMS5003;34101;53.430;-2.224;2024-03-07T02:28:40;49;47;
46681;PMS5003;34101;53.430;-2.224;2024-03-07T02:31:08;56;51;
46681;PMS5003;34101;53.430;-2.224;2024-03-07T02:33:35;57;49;
46681;PMS5003;34101;53.430;-2.224;2024-03-07T02:36:03;52;42;
46681;PMS5003;34101;53.430;-2.224;2024-03-07T02:38:31;53;50;
46681;PMS5003;34101;53.430;-2.224;2024-03-07T02:40:58;54;52;
46681;PMS5003;34101;53.430;-2.224;2024-03-07T02:43:26;55;51;
46681;PMS5003;34101;53.430;-2.224;2024-03-07T02:45:53;55;49;
46681;PMS5003;34101;53.430;-2.224;2024-03-07T02:48:21;47;46;
46681;PMS5003;34101;53.430;-2.224;2024-03-07T02:50:49;48;47;
46681;PMS5003;34101;53.430;-2.224;2024-03-07T02:53:16;52;52;
46681;PMS5003;34101;53.430;-2.224;2024-03-07T02:55:44;59;55;
46681;PMS5003;34101;53.430;-2.224;2024-03-07T02:58:11;65;59;
46681;PMS5003;34101;53.430;-2.224;2024-03-07T03:00:39;55;53;
46681;PMS5003;34101;53.430;-2.224;2024-03-07T03:03:07;50;48;
46681;PMS5003;34101;53.430;-2.224;2024-03-07T03:05:34;51;49;
46681;PMS5003;34101;53.430;-2.224;2024-03-07T03:08:03;58;57;
46681;PMS5003;34101;53.430;-2.224;2024-03-07T03:10:31;55;55;
46681;PMS5003;34101;53.430;-2.224;2024-03-07T03:12:59;57;56;
46681;PMS5003;34101;53.430;-2.224;2024-03-07T03:15:27;60;57;
46681;PMS5003;34101;53.430;-2.224;2024-03-07T03:17:54;52;48;
46681;PMS5003;34101;53.430;-2.224;2024-03-07T03:20:22;59;52;
46681;PMS5003;34101;53.430;-2.224;2024-03-07T03:22:49;60;59;
46681;PMS5003;34101;53.430;-2.224;2024-03-07T03:25:17;62;58;
46681;PMS5003;34101;53.430;-2.224;2024-03-07T03:27:46;64;57;
46681;PMS5003;34101;53.430;-2.224;2024-03-07T03:30:14;58;55;
46681;PMS5003;34101;53.430;-2.224;2024-03-07T03:32:41;49;49;
46681;PMS5003;34101;53.430;-2.224;2024-03-07T03:35:09;60;55;
46681;PMS5003;34101;53.430;-2.224;2024-03-07T03:37:37;51;48;
46681;PMS5003;34101;53.430;-2.224;2024-03-07T03:40:10;49;47;
46681;PMS5003;34101;53.430;-2.224;2024-03-07T03:42:39;52;45;
46681;PMS5003;34101;53.430;-2.224;2024-03-07T03:45:09;53;50;
46681;PMS5003;34101;53.430;-2.224;2024-03-07T03:47:37;47;43;
46681;PMS5003;34101;53.430;-2.224;2024-03-07T03:50:05;51;48;
46681;PMS5003;34101;53.430;-2.224;2024-03-07T03:52:39;51;48;
46681;PMS5003;34101;53.430;-2.224;2024-03-07T03:55:08;41;38;
46681;PMS5003;34101;53.430;-2.224;2024-03-07T03:57:35;51;46;
46681;PMS5003;34101;53.430;-2.224;2024-03-07T04:00:05;43;43;
46681;PMS5003;34101;53.430;-2.224;2024-03-07T04:02:33;54;43;
46681;PMS5003;34101;53.430;-2.224;2024-03-07T04:05:01;48;42;
46681;PMS5003;34101;53.430;-2.224;2024-03-07T04:07:30;50;48;
46681;PMS5003;34101;53.430;-2.224;2024-03-07T04:09:57;48;43;
46681;PMS5003;34101;53.430;-2.224;2024-03-07T04:12:25;46;44;
46681;PMS5003;34101;53.430;-2.224;2024-03-07T04:14:53;45;40;
46681;PMS5003;34101;53.430;-2.224;2024-03-07T04:17:22;46;42;
46681;PMS5003;34101;53.430;-2.224;2024-03-07T04:19:49;38;36;
46681;PMS5003;34101;53.430;-2.224;2024-03-07T04:22:17;37;36;
46681;PMS5003;34101;53.430;-2.224;2024-03-07T04:24:44;37;34;
46681;PMS5003;34101;53.430;-2.224;2024-03-07T04:27:11;42;42;
46681;PMS5003;34101;53.430;-2.224;2024-03-07T04:29:39;40;35;
46681;PMS5003;34101;53.430;-2.224;2024-03-07T04:32:06;44;41;
46681;PMS5003;34101;53.430;-2.224;2024-03-07T04:34:33;41;37;
46681;PMS5003;34101;53.430;-2.224;2024-03-07T04:37:01;34;31;
46681;PMS5003;34101;53.430;-2.224;2024-03-07T04:39:28;42;42;
46681;PMS5003;34101;53.430;-2.224;2024-03-07T04:41:56;42;37;
46681;PMS5003;34101;53.430;-2.224;2024-03-07T04:44:24;36;35;
46681;PMS5003;34101;53.430;-2.224;2024-03-07T04:46:52;39;37;
46681;PMS5003;34101;53.430;-2.224;2024-03-07T04:49:20;40;34;
46681;PMS5003;34101;53.430;-2.224;2024-03-07T04:51:48;41;36;
46681;PMS5003;34101;53.430;-2.224;2024-03-07T04:54:15;39;33;
46681;PMS5003;34101;53.430;-2.224;2024-03-07T04:56:43;34;28;
46681;PMS5003;34101;53.430;-2.224;2024-03-07T04:59:10;31;31;
46681;PMS5003;34101;53.430;-2.224;2024-03-07T05:01:38;37;34;
46681;PMS5003;34101;53.430;-2.224;2024-03-07T05:04:05;31;26;
46681;PMS5003;34101;53.430;-2.224;2024-03-07T05:06:39;30;27;
46681;PMS5003;34101;53.430;-2.224;2024-03-07T05:09:07;25;24;
46681;PMS5003;34101;53.430;-2.224;2024-03-07T05:11:36;33;30;
46681;PMS5003;34101;53.430;-2.224;2024-03-07T05:14:04;28;27;
46681;PMS5003;34101;53.430;-2.224;2024-03-07T05:16:31;31;30;
46681;PMS5003;34101;53.430;-2.224;2024-03-07T05:18:59;39;28;
46681;PMS5003;34101;53.430;-2.224;2024-03-07T05:21:27;36;31;
46681;PMS5003;34101;53.430;-2.224;2024-03-07T05:23:55;30;29;
46681;PMS5003;34101;53.430;-2.224;2024-03-07T05:26:22;30;29;
46681;PMS5003;34101;53.430;-2.224;2024-03-07T05:28:49;31;31;
46681;PMS5003;34101;53.430;-2.224;2024-03-07T05:31:16;33;32;
46681;PMS5003;34101;53.430;-2.224;2024-03-07T05:33:44;36;34;
46681;PMS5003;34101;53.430;-2.224;2024-03-07T05:36:12;35;34;
46681;PMS5003;34101;53.430;-2.224;2024-03-07T05:38:40;31;26;
46681;PMS5003;34101;53.430;-2.224;2024-03-07T05:41:07;27;27;
46681;PMS5003;34101;53.430;-2.224;2024-03-07T05:43:35;34;29;
46681;PMS5003;34101;53.430;-2.224;2024-03-07T05:46:04;31;29;
46681;PMS5003;34101;53.430;-2.224;2024-03-07T05:48:31;29;26;
46681;PMS5003;34101;53.430;-2.224;2024-03-07T05:51:00;31;30;
46681;PMS5003;34101;53.430;-2.224;2024-03-07T05:53:27;37;35;
46681;PMS5003;34101;53.430;-2.224;2024-03-07T05:55:54;34;33;
46681;PMS5003;34101;53.430;-2.224;2024-03-07T05:58:22;34;32;
46681;PMS5003;34101;53.430;-2.224;2024-03-07T06:00:49;37;36;
46681;PMS5003;34101;53.430;-2.224;2024-03-07T06:03:17;29;24;
46681;PMS5003;34101;53.430;-2.224;2024-03-07T06:05:45;41;38;
46681;PMS5003;34101;53.430;-2.224;2024-03-07T06:08:13;30;30;
46681;PMS5003;34101;53.430;-2.224;2024-03-07T06:10:41;33;32;
46681;PMS5003;34101;53.430;-2.224;2024-03-07T06:13:09;34;33;
46681;PMS5003;34101;53.430;-2.224;2024-03-07T06:15:38;34;33;
46681;PMS5003;34101;53.430;-2.224;2024-03-07T06:18:05;46;42;
46681;PMS5003;34101;53.430;-2.224;2024-03-07T06:20:33;34;34;
46681;PMS5003;34101;53.430;-2.224;2024-03-07T06:23:01;37;34;
46681;PMS5003;34101;53.430;-2.224;2024-03-07T06:25:29;38;36;
46681;PMS5003;34101;53.430;-2.224;2024-03-07T06:27:57;36;32;
46681;PMS5003;34101;53.430;-2.224;2024-03-07T06:30:24;32;31;
46681;PMS5003;34101;53.430;-2.224;2024-03-07T06:32:52;36;36;
46681;PMS5003;34101;53.430;-2.224;2024-03-07T06:35:20;40;37;
46681;PMS5003;34101;53.430;-2.224;2024-03-07T06:37:48;40;39;
46681;PMS5003;34101;53.430;-2.224;2024-03-07T06:40:15;37;35;
46681;PMS5003;34101;53.430;-2.224;2024-03-07T06:42:43;35;31;
46681;PMS5003;34101;53.430;-2.224;2024-03-07T06:45:10;35;33;
46681;PMS5003;34101;53.430;-2.224;2024-03-07T06:47:38;38;37;
46681;PMS5003;34101;53.430;-2.224;2024-03-07T06:50:05;37;32;
46681;PMS5003;34101;53.430;-2.224;2024-03-07T06:52:33;30;29;
46681;PMS5003;34101;53.430;-2.224;2024-03-07T06:55:00;32;30;
46681;PMS5003;34101;53.430;-2.224;2024-03-07T06:57:27;31;31;
46681;PMS5003;34101;53.430;-2.224;2024-03-07T06:59:55;25;23;
46681;PMS5003;34101;53.430;-2.224;2024-03-07T07:02:22;31;29;
46681;PMS5003;34101;53.430;-2.224;2024-03-07T07:04:50;36;33;
46681;PMS5003;34101;53.430;-2.224;2024-03-07T07:07:18;33;30;
46681;PMS5003;34101;53.430;-2.224;2024-03-07T07:09:46;40;31;
46681;PMS5003;34101;53.430;-2.224;2024-03-07T07:12:13;32;32;
46681;PMS5003;34101;53.430;-2.224;2024-03-07T07:14:40;40;39;
46681;PMS5003;34101;53.430;-2.224;2024-03-07T07:17:08;29;29;
46681;PMS5003;34101;53.430;-2.224;2024-03-07T07:19:36;43;36;
46681;PMS5003;34101;53.430;-2.224;2024-03-07T07:22:03;34;34;
46681;PMS5003;34101;53.430;-2.224;2024-03-07T07:24:30;38;32;
46681;PMS5003;34101;53.430;-2.224;2024-03-07T07:26:58;33;30;
46681;PMS5003;34101;53.430;-2.224;2024-03-07T07:29:25;43;40;
46681;PMS5003;34101;53.430;-2.224;2024-03-07T07:31:53;35;34;
46681;PMS5003;34101;53.430;-2.224;2024-03-07T07:34:21;30;28;
46681;PMS5003;34101;53.430;-2.224;2024-03-07T07:36:49;30;30;
46681;PMS5003;34101;53.430;-2.224;2024-03-07T07:39:17;31;31;
46681;PMS5003;34101;53.430;-2.224;2024-03-07T07:41:44;36;33;
46681;PMS5003;34101;53.430;-2.224;2024-03-07T07:44:12;34;30;
46681;PMS5003;34101;53.430;-2.224;2024-03-07T07:46:39;33;32;
46681;PMS5003;34101;53.430;-2.224;2024-03-07T07:49:08;24;24;
46681;PMS5003;34101;53.430;-2.224;2024-03-07T07:51:35;35;29;
46681;PMS5003;34101;53.430;-2.224;2024-03-07T07:54:03;28;27;
46681;PMS5003;34101;53.430;-2.224;2024-03-07T07:56:30;29;28;
46681;PMS5003;34101;53.430;-2.224;2024-03-07T07:58:57;26;25;
46681;PMS5003;34101;53.430;-2.224;2024-03-07T08:01:25;26;26;
46681;PMS5003;34101;53.430;-2.224;2024-03-07T08:03:53;21;21;
46681;PMS5003;34101;53.430;-2.224;2024-03-07T08:06:20;27;24;
46681;PMS5003;34101;53.430;-2.224;2024-03-07T08:08:48;28;26;
46681;PMS5003;34101;53.430;-2.224;2024-03-07T08:11:15;21;21;
46681;PMS5003;34101;53.430;-2.224;2024-03-07T08:13:43;26;22;
46681;PMS5003;34101;53.430;-2.224;2024-03-07T08:16:11;26;26;
46681;PMS5003;34101;53.430;-2.224;2024-03-07T08:18:39;21;19;
46681;PMS5003;34101;53.430;-2.224;2024-03-07T08:21:06;20;19;
46681;PMS5003;34101;53.430;-2.224;2024-03-07T08:23:33;25;25;
46681;PMS5003;34101;53.430;-2.224;2024-03-07T08:26:01;21;20;
46681;PMS5003;34101;53.430;-2.224;2024-03-07T08:28:29;20;19;
46681;PMS5003;34101;53.430;-2.224;2024-03-07T08:30:56;19;16;
46681;PMS5003;34101;53.430;-2.224;2024-03-07T08:33:26;19;17;
46681;PMS5003;34101;53.430;-2.224;2024-03-07T08:35:53;21;20;
46681;PMS5003;34101;53.430;-2.224;2024-03-07T08:38:21;23;22;
46681;PMS5003;34101;53.430;-2.224;2024-03-07T08:40:48;18;18;
46681;PMS5003;34101;53.430;-2.224;2024-03-07T08:43:16;21;19;
46681;PMS5003;34101;53.430;-2.224;2024-03-07T08:45:43;23;21;
46681;PMS5003;34101;53.430;-2.224;2024-03-07T08:48:10;21;19;
46681;PMS5003;34101;53.430;-2.224;2024-03-07T08:50:39;13;13;
46681;PMS5003;34101;53.430;-2.224;2024-03-07T08:53:06;20;18;
46681;PMS5003;34101;53.430;-2.224;2024-03-07T08:55:34;21;21;
46681;PMS5003;34101;53.430;-2.224;2024-03-07T08:58:01;17;17;
46681;PMS5003;34101;53.430;-2.224;2024-03-07T09:00:30;16;13;
46681;PMS5003;34101;53.430;-2.224;2024-03-07T09:02:59;14;14;
46681;PMS5003;34101;53.430;-2.224;2024-03-07T09:05:27;16;15;
46681;PMS5003;34101;53.430;-2.224;2024-03-07T09:07:55;15;14;
46681;PMS5003;34101;53.430;-2.224;2024-03-07T09:10:23;18;15;
46681;PMS5003;34101;53.430;-2.224;2024-03-07T09:12:50;17;15;
46681;PMS5003;34101;53.430;-2.224;2024-03-07T09:15:18;15;15;
46681;PMS5003;34101;53.430;-2.224;2024-03-07T09:17:45;16;16;
46681;PMS5003;34101;53.430;-2.224;2024-03-07T09:20:13;13;13;
46681;PMS5003;34101;53.430;-2.224;2024-03-07T09:22:41;17;15;
46681;PMS5003;34101;53.430;-2.224;2024-03-07T09:25:09;18;17;
46681;PMS5003;34101;53.430;-2.224;2024-03-07T09:27:37;18;18;
46681;PMS5003;34101;53.430;-2.224;2024-03-07T09:30:05;17;16;
46681;PMS5003;34101;53.430;-2.224;2024-03-07T09:32:33;17;15;
46681;PMS5003;34101;53.430;-2.224;2024-03-07T09:35:00;22;19;
46681;PMS5003;34101;53.430;-2.224;2024-03-07T09:37:27;16;15;
46681;PMS5003;34101;53.430;-2.224;2024-03-07T09:39:55;17;16;
46681;PMS5003;34101;53.430;-2.224;2024-03-07T09:42:22;18;18;
46681;PMS5003;34101;53.430;-2.224;2024-03-07T09:44:53;19;17;
46681;PMS5003;34101;53.430;-2.224;2024-03-07T09:47:23;20;18;
46681;PMS5003;34101;53.430;-2.224;2024-03-07T09:49:50;18;17;
46681;PMS5003;34101;53.430;-2.224;2024-03-07T09:52:20;24;22;
46681;PMS5003;34101;53.430;-2.224;2024-03-07T09:54:48;20;17;
46681;PMS5003;34101;53.430;-2.224;2024-03-07T09:57:15;20;20;
46681;PMS5003;34101;53.430;-2.224;2024-03-07T09:59:43;26;25;
46681;PMS5003;34101;53.430;-2.224;2024-03-07T10:02:14;19;18;
46681;PMS5003;34101;53.430;-2.224;2024-03-07T10:04:44;22;21;
46681;PMS5003;34101;53.430;-2.224;2024-03-07T10:07:14;21;20;
46681;PMS5003;34101;53.430;-2.224;2024-03-07T10:09:42;21;21;
46681;PMS5003;34101;53.430;-2.224;2024-03-07T10:12:10;18;18;
46681;PMS5003;34101;53.430;-2.224;2024-03-07T10:14:38;24;20;
46681;PMS5003;34101;53.430;-2.224;2024-03-07T10:17:14;18;18;
46681;PMS5003;34101;53.430;-2.224;2024-03-07T10:19:42;24;23;
46681;PMS5003;34101;53.430;-2.224;2024-03-07T10:22:13;22;21;
46681;PMS5003;34101;53.430;-2.224;2024-03-07T10:24:44;22;22;
46681;PMS5003;34101;53.430;-2.224;2024-03-07T10:27:17;23;21;
46681;PMS5003;34101;53.430;-2.224;2024-03-07T10:29:46;22;20;
46681;PMS5003;34101;53.430;-2.224;2024-03-07T10:32:13;22;20;
46681;PMS5003;34101;53.430;-2.224;2024-03-07T10:34:46;20;19;
46681;PMS5003;34101;53.430;-2.224;2024-03-07T10:37:14;19;18;
46681;PMS5003;34101;53.430;-2.224;2024-03-07T10:39:43;20;18;
46681;PMS5003;34101;53.430;-2.224;2024-03-07T10:42:12;19;19;
46681;PMS5003;34101;53.430;-2.224;2024-03-07T10:44:42;24;22;
46681;PMS5003;34101;53.430;-2.224;2024-03-07T10:47:11;26;23;
46681;PMS5003;34101;53.430;-2.224;2024-03-07T10:49:47;23;23;
46681;PMS5003;34101;53.430;-2.224;2024-03-07T10:52:26;36;35;
46681;PMS5003;34101;53.430;-2.224;2024-03-07T10:55:06;29;28;
46681;PMS5003;34101;53.430;-2.224;2024-03-07T10:57:43;27;26;
46681;PMS5003;34101;53.430;-2.224;2024-03-07T11:00:17;24;23;
46681;PMS5003;34101;53.430;-2.224;2024-03-07T11:02:46;24;24;
46681;PMS5003;34101;53.430;-2.224;2024-03-07T11:05:14;24;23;
46681;PMS5003;34101;53.430;-2.224;2024-03-07T11:07:42;23;23;
46681;PMS5003;34101;53.430;-2.224;2024-03-07T11:10:10;21;20;
46681;PMS5003;34101;53.430;-2.224;2024-03-07T11:12:38;21;20;
46681;PMS5003;34101;53.430;-2.224;2024-03-07T11:15:06;22;21;
46681;PMS5003;34101;53.430;-2.224;2024-03-07T11:17:38;16;15;
46681;PMS5003;34101;53.430;-2.224;2024-03-07T11:20:26;15;15;
46681;PMS5003;34101;53.430;-2.224;2024-03-07T11:23:00;24;21;
46681;PMS5003;34101;53.430;-2.224;2024-03-07T11:25:51;23;22;
46681;PMS5003;34101;53.430;-2.224;2024-03-07T11:28:27;18;16;
46681;PMS5003;34101;53.430;-2.224;2024-03-07T11:30:55;20;20;
46681;PMS5003;34101;53.430;-2.224;2024-03-07T11:33:36;23;22;
46681;PMS5003;34101;53.430;-2.224;2024-03-07T11:36:04;24;20;
46681;PMS5003;34101;53.430;-2.224;2024-03-07T11:38:32;26;24;
46681;PMS5003;34101;53.430;-2.224;2024-03-07T11:41:00;24;23;
46681;PMS5003;34101;53.430;-2.224;2024-03-07T11:43:28;33;31;
46681;PMS5003;34101;53.430;-2.224;2024-03-07T11:45:56;40;38;
46681;PMS5003;34101;53.430;-2.224;2024-03-07T11:48:24;43;39;
46681;PMS5003;34101;53.430;-2.224;2024-03-07T11:50:51;45;42;
46681;PMS5003;34101;53.430;-2.224;2024-03-07T11:53:18;45;43;
46681;PMS5003;34101;53.430;-2.224;2024-03-07T11:55:46;41;39;
46681;PMS5003;34101;53.430;-2.224;2024-03-07T11:58:13;49;47;
46681;PMS5003;34101;53.430;-2.224;2024-03-07T12:00:41;38;36;
46681;PMS5003;34101;53.430;-2.224;2024-03-07T12:03:09;47;45;
46681;PMS5003;34101;53.430;-2.224;2024-03-07T12:05:37;46;42;
46681;PMS5003;34101;53.430;-2.224;2024-03-07T12:08:06;40;37;
46681;PMS5003;34101;53.430;-2.224;2024-03-07T12:10:33;40;38;
46681;PMS5003;34101;53.430;-2.224;2024-03-07T12:13:01;45;39;
46681;PMS5003;34101;53.430;-2.224;2024-03-07T12:15:30;44;43;
46681;PMS5003;34101;53.430;-2.224;2024-03-07T12:17:57;48;47;
46681;PMS5003;34101;53.430;-2.224;2024-03-07T12:20:25;38;38;
46681;PMS5003;34101;53.430;-2.224;2024-03-07T12:22:55;58;54;
46681;PMS5003;34101;53.430;-2.224;2024-03-07T12:25:23;53;49;
46681;PMS5003;34101;53.430;-2.224;2024-03-07T12:28:07;41;39;
46681;PMS5003;34101;53.430;-2.224;2024-03-07T12:30:47;52;51;
46681;PMS5003;34101;53.430;-2.224;2024-03-07T12:33:16;57;50;
46681;PMS5003;34101;53.430;-2.224;2024-03-07T12:35:46;61;52;
46681;PMS5003;34101;53.430;-2.224;2024-03-07T12:38:14;39;38;
46681;PMS5003;34101;53.430;-2.224;2024-03-07T12:40:42;58;55;
46681;PMS5003;34101;53.430;-2.224;2024-03-07T12:43:15;54;50;
46681;PMS5003;34101;53.430;-2.224;2024-03-07T12:45:44;39;37;
46681;PMS5003;34101;53.430;-2.224;2024-03-07T12:48:15;43;41;
46681;PMS5003;34101;53.430;-2.224;2024-03-07T12:50:45;43;40;
46681;PMS5003;34101;53.430;-2.224;2024-03-07T12:53:15;43;32;
46681;PMS5003;34101;53.430;-2.224;2024-03-07T12:55:42;46;39;
46681;PMS5003;34101;53.430;-2.224;2024-03-07T12:58:10;32;29;
46681;PMS5003;34101;53.430;-2.224;2024-03-07T13:00:45;39;35;
46681;PMS5003;34101;53.430;-2.224;2024-03-07T13:03:20;36;35;
46681;PMS5003;34101;53.430;-2.224;2024-03-07T13:05:49;38;36;
46681;PMS5003;34101;53.430;-2.224;2024-03-07T13:08:17;40;37;
46681;PMS5003;34101;53.430;-2.224;2024-03-07T13:10:44;45;43;
46681;PMS5003;34101;53.430;-2.224;2024-03-07T13:13:12;42;42;
46681;PMS5003;34101;53.430;-2.224;2024-03-07T13:15:40;48;42;
46681;PMS5003;34101;53.430;-2.224;2024-03-07T13:18:08;35;33;
46681;PMS5003;34101;53.430;-2.224;2024-03-07T13:20:35;45;41;
46681;PMS5003;34101;53.430;-2.224;2024-03-07T13:23:03;42;40;
46681;PMS5003;34101;53.430;-2.224;2024-03-07T13:25:31;48;44;
46681;PMS5003;34101;53.430;-2.224;2024-03-07T13:28:00;40;36;
46681;PMS5003;34101;53.430;-2.224;2024-03-07T13:30:31;54;42;
46681;PMS5003;34101;53.430;-2.224;2024-03-07T13:32:59;37;37;
46681;PMS5003;34101;53.430;-2.224;2024-03-07T13:35:27;44;41;
46681;PMS5003;34101;53.430;-2.224;2024-03-07T13:37:55;52;49;
46681;PMS5003;34101;53.430;-2.224;2024-03-07T13:40:23;48;48;
46681;PMS5003;34101;53.430;-2.224;2024-03-07T13:42:53;40;39;
46681;PMS5003;34101;53.430;-2.224;2024-03-07T13:45:22;49;45;
46681;PMS5003;34101;53.430;-2.224;2024-03-07T13:47:52;47;41;
46681;PMS5003;34101;53.430;-2.224;2024-03-07T13:50:22;45;45;
46681;PMS5003;34101;53.430;-2.224;2024-03-07T13:52:51;59;51;
46681;PMS5003;34101;53.430;-2.224;2024-03-07T13:55:19;64;56;
46681;PMS5003;34101;53.430;-2.224;2024-03-07T13:57:48;60;54;
46681;PMS5003;34101;53.430;-2.224;2024-03-07T14:00:25;63;57;
46681;PMS5003;34101;53.430;-2.224;2024-03-07T14:03:17;48;43;
46681;PMS5003;34101;53.430;-2.224;2024-03-07T14:06:04;56;53;
46681;PMS5003;34101;53.430;-2.224;2024-03-07T14:08:46;56;55;
46681;PMS5003;34101;53.430;-2.224;2024-03-07T14:11:41;74;67;
46681;PMS5003;34101;53.430;-2.224;2024-03-07T14:21:45;69;64;
46681;PMS5003;34101;53.430;-2.224;2024-03-07T14:24:33;50;47;
46681;PMS5003;34101;53.430;-2.224;2024-03-07T14:27:20;44;40;
46681;PMS5003;34101;53.430;-2.224;2024-03-07T14:29:54;45;43;
46681;PMS5003;34101;53.430;-2.224;2024-03-07T14:32:35;37;37;
46681;PMS5003;34101;53.430;-2.224;2024-03-07T14:35:08;45;40;
46681;PMS5003;34101;53.430;-2.224;2024-03-07T14:37:46;39;38;
46681;PMS5003;34101;53.430;-2.224;2024-03-07T14:40:20;40;39;
46681;PMS5003;34101;53.430;-2.224;2024-03-07T14:42:49;39;37;
46681;PMS5003;34101;53.430;-2.224;2024-03-07T14:45:18;43;41;
46681;PMS5003;34101;53.430;-2.224;2024-03-07T14:47:48;35;33;
46681;PMS5003;34101;53.430;-2.224;2024-03-07T14:50:17;35;35;
46681;PMS5003;34101;53.430;-2.224;2024-03-07T14:52:45;38;35;
46681;PMS5003;34101;53.430;-2.224;2024-03-07T14:55:13;39;31;
46681;PMS5003;34101;53.430;-2.224;2024-03-07T14:57:41;40;36;
46681;PMS5003;34101;53.430;-2.224;2024-03-07T15:00:08;29;29;
46681;PMS5003;34101;53.430;-2.224;2024-03-07T15:02:37;35;32;
46681;PMS5003;34101;53.430;-2.224;2024-03-07T15:05:05;31;29;
46681;PMS5003;34101;53.430;-2.224;2024-03-07T15:07:33;28;28;
46681;PMS5003;34101;53.430;-2.224;2024-03-07T15:10:02;29;28;
46681;PMS5003;34101;53.430;-2.224;2024-03-07T15:12:32;23;22;
46681;PMS5003;34101;53.430;-2.224;2024-03-07T15:14:59;32;32;
46681;PMS5003;34101;53.430;-2.224;2024-03-07T15:17:27;29;28;
46681;PMS5003;34101;53.430;-2.224;2024-03-07T15:19:55;35;34;
46681;PMS5003;34101;53.430;-2.224;2024-03-07T15:22:22;32;28;
46681;PMS5003;34101;53.430;-2.224;2024-03-07T15:24:50;27;25;
46681;PMS5003;34101;53.430;-2.224;2024-03-07T15:27:17;26;26;
46681;PMS5003;34101;53.430;-2.224;2024-03-07T15:29:45;24;24;
46681;PMS5003;34101;53.430;-2.224;2024-03-07T15:32:12;30;25;
46681;PMS5003;34101;53.430;-2.224;2024-03-07T15:34:40;39;37;
46681;PMS5003;34101;53.430;-2.224;2024-03-07T15:37:07;30;29;
46681;PMS5003;34101;53.430;-2.224;2024-03-07T15:39:35;30;28;
46681;PMS5003;34101;53.430;-2.224;2024-03-07T15:42:03;30;29;
46681;PMS5003;34101;53.430;-2.224;2024-03-07T15:44:30;38;36;
46681;PMS5003;34101;53.430;-2.224;2024-03-07T15:46:58;45;41;
46681;PMS5003;34101;53.430;-2.224;2024-03-07T15:49:25;35;33;
46681;PMS5003;34101;53.430;-2.224;2024-03-07T15:51:53;31;30;
46681;PMS5003;34101;53.430;-2.224;2024-03-07T15:54:21;36;34;
46681;PMS5003;34101;53.430;-2.224;2024-03-07T15:56:54;37;37;
46681;PMS5003;34101;53.430;-2.224;2024-03-07T15:59:22;36;32;
46681;PMS5003;34101;53.430;-2.224;2024-03-07T16:01:49;38;36;
46681;PMS5003;34101;53.430;-2.224;2024-03-07T16:04:17;41;38;
46681;PMS5003;34101;53.430;-2.224;2024-03-07T16:06:45;43;38;
46681;PMS5003;34101;53.430;-2.224;2024-03-07T16:09:14;33;32;
46681;PMS5003;34101;53.430;-2.224;2024-03-07T16:11:41;36;35;
46681;PMS5003;34101;53.430;-2.224;2024-03-07T16:14:08;36;33;
46681;PMS5003;34101;53.430;-2.224;2024-03-07T16:16:38;42;39;
46681;PMS5003;34101;53.430;-2.224;2024-03-07T16:19:07;39;37;